AIC4CT VABB-VIDP
Flight info
| Callsign | AIC4CT |
|---|---|
| Flight time | N/A |
| Altitude | 35000 |
| Route | ALBAP2B ISRIS Q1 UKASO UKASO6C |
| Aircraft | A321/M-SDE3FGHIRWY/LB1 |
Departure
| Time | N/A |
|---|---|
| Airport | Chhatrapati Shivaji Maharaj International Airport (VABB) |
Arrival
| Time | 2026-04-29 04:58 |
|---|---|
| Airport | Indira Gandhi International Airport (VIDP) |
| Time | Latitude | Longitude | Altitude | Speed | Heading |
|---|---|---|---|---|---|
| 2026-04-29 04:35 | 27.81633 | 75.92443 | 27994 ft | 451 kts | 11° |
| 2026-04-29 04:35 | 27.84610 | 75.93436 | 27574 ft | 444 kts | 11° |
| 2026-04-29 04:35 | 27.87517 | 75.94409 | 27160 ft | 442 kts | 11° |
| 2026-04-29 04:36 | 27.90444 | 75.95393 | 26704 ft | 438 kts | 11° |
| 2026-04-29 04:36 | 27.93368 | 75.96380 | 26127 ft | 435 kts | 11° |
| 2026-04-29 04:36 | 27.96247 | 75.97349 | 24990 ft | 443 kts | 12° |
| 2026-04-29 04:36 | 27.99211 | 75.98342 | 23513 ft | 457 kts | 12° |
| 2026-04-29 04:37 | 28.02246 | 75.99363 | 22269 ft | 462 kts | 13° |
| 2026-04-29 04:37 | 28.05279 | 76.00392 | 21413 ft | 458 kts | 13° |
| 2026-04-29 04:37 | 28.08292 | 76.01417 | 20659 ft | 451 kts | 13° |
| 2026-04-29 04:37 | 28.11294 | 76.02440 | 19894 ft | 445 kts | 13° |
| 2026-04-29 04:38 | 28.14235 | 76.03436 | 19135 ft | 440 kts | 13° |
| 2026-04-29 04:38 | 28.17088 | 76.04401 | 18389 ft | 435 kts | 13° |
| 2026-04-29 04:38 | 28.19956 | 76.05380 | 17640 ft | 431 kts | 15° |
| 2026-04-29 04:38 | 28.22576 | 76.06866 | 17056 ft | 430 kts | 34° |
| 2026-04-29 04:39 | 28.24550 | 76.09383 | 16780 ft | 423 kts | 55° |
| 2026-04-29 04:39 | 28.25876 | 76.12287 | 16555 ft | 411 kts | 62° |
| 2026-04-29 04:39 | 28.27011 | 76.15173 | 16320 ft | 395 kts | 63° |
| 2026-04-29 04:39 | 28.28096 | 76.17927 | 15867 ft | 372 kts | 62° |
| 2026-04-29 04:40 | 28.29114 | 76.20422 | 15419 ft | 353 kts | 61° |
| 2026-04-29 04:40 | 28.30077 | 76.22714 | 15049 ft | 335 kts | 60° |
| 2026-04-29 04:40 | 28.31067 | 76.25025 | 14626 ft | 320 kts | 60° |
| 2026-04-29 04:40 | 28.32040 | 76.27261 | 13964 ft | 315 kts | 60° |
| 2026-04-29 04:41 | 28.33002 | 76.29449 | 13240 ft | 312 kts | 60° |
| 2026-04-29 04:41 | 28.33960 | 76.31622 | 12528 ft | 308 kts | 60° |
| 2026-04-29 04:41 | 28.34905 | 76.33764 | 11819 ft | 304 kts | 60° |
| 2026-04-29 04:41 | 28.35845 | 76.35897 | 11106 ft | 300 kts | 60° |
| 2026-04-29 04:42 | 28.36769 | 76.37993 | 10401 ft | 297 kts | 60° |
| 2026-04-29 04:42 | 28.37643 | 76.39978 | 9915 ft | 291 kts | 60° |
| 2026-04-29 04:42 | 28.38526 | 76.41982 | 9754 ft | 292 kts | 60° |
| 2026-04-29 04:42 | 28.39440 | 76.44059 | 9752 ft | 294 kts | 60° |
| 2026-04-29 04:43 | 28.40358 | 76.46148 | 9747 ft | 293 kts | 60° |
| 2026-04-29 04:43 | 28.41275 | 76.48230 | 9751 ft | 308 kts | 60° |
| 2026-04-29 04:43 | 28.42258 | 76.50461 | 9747 ft | 324 kts | 60° |
| 2026-04-29 04:43 | 28.43281 | 76.52792 | 9746 ft | 327 kts | 61° |
| 2026-04-29 04:44 | 28.44291 | 76.55096 | 9745 ft | 328 kts | 61° |
| 2026-04-29 04:44 | 28.45303 | 76.57407 | 9745 ft | 328 kts | 61° |
| 2026-04-29 04:44 | 28.46319 | 76.59728 | 9745 ft | 328 kts | 61° |
| 2026-04-29 04:44 | 28.47327 | 76.62030 | 9745 ft | 328 kts | 60° |
| 2026-04-29 04:45 | 28.48342 | 76.64350 | 9745 ft | 328 kts | 60° |
| 2026-04-29 04:45 | 28.49328 | 76.66609 | 9745 ft | 328 kts | 61° |
| 2026-04-29 04:45 | 28.50348 | 76.68954 | 9745 ft | 328 kts | 61° |
| 2026-04-29 04:45 | 28.51343 | 76.71281 | 9743 ft | 329 kts | 65° |
| 2026-04-29 04:46 | 28.51812 | 76.73840 | 9730 ft | 335 kts | 90° |
| 2026-04-29 04:46 | 28.51430 | 76.76437 | 9748 ft | 338 kts | 102° |
| 2026-04-29 04:46 | 28.50845 | 76.79037 | 9746 ft | 338 kts | 103° |
| 2026-04-29 04:46 | 28.50248 | 76.81619 | 9746 ft | 338 kts | 103° |
| 2026-04-29 04:47 | 28.49665 | 76.84203 | 9739 ft | 338 kts | 102° |
| 2026-04-29 04:47 | 28.49100 | 76.86775 | 9390 ft | 334 kts | 102° |
| 2026-04-29 04:47 | 28.48554 | 76.89301 | 9017 ft | 328 kts | 102° |
| 2026-04-29 04:47 | 28.48051 | 76.91647 | 8664 ft | 323 kts | 102° |
| 2026-04-29 04:48 | 28.47536 | 76.94058 | 8295 ft | 317 kts | 102° |
| 2026-04-29 04:48 | 28.47018 | 76.96484 | 7920 ft | 313 kts | 102° |
| 2026-04-29 04:48 | 28.46515 | 76.98829 | 7752 ft | 301 kts | 102° |
| 2026-04-29 04:48 | 28.46036 | 77.01061 | 7721 ft | 301 kts | 102° |
| 2026-04-29 04:49 | 28.45557 | 77.03291 | 7406 ft | 299 kts | 102° |
| 2026-04-29 04:49 | 28.45137 | 77.05243 | 7157 ft | 294 kts | 102° |
| 2026-04-29 04:49 | 28.44652 | 77.07497 | 6854 ft | 288 kts | 102° |
| 2026-04-29 04:49 | 28.44182 | 77.09682 | 6553 ft | 283 kts | 102° |
| 2026-04-29 04:50 | 28.43715 | 77.11852 | 6252 ft | 282 kts | 102° |
| 2026-04-29 04:50 | 28.43252 | 77.14005 | 5953 ft | 281 kts | 102° |
| 2026-04-29 04:50 | 28.42790 | 77.16147 | 5654 ft | 279 kts | 102° |
| 2026-04-29 04:50 | 28.42328 | 77.18288 | 5353 ft | 278 kts | 102° |
| 2026-04-29 04:51 | 28.41891 | 77.20312 | 5068 ft | 277 kts | 102° |
| 2026-04-29 04:51 | 28.41451 | 77.22349 | 4781 ft | 274 kts | 102° |
| 2026-04-29 04:51 | 28.41003 | 77.24416 | 4214 ft | 274 kts | 102° |
| 2026-04-29 04:51 | 28.40580 | 77.26457 | 3598 ft | 269 kts | 97° |
| 2026-04-29 04:52 | 28.40736 | 77.28497 | 2961 ft | 261 kts | 65° |
| 2026-04-29 04:52 | 28.41893 | 77.29966 | 2619 ft | 242 kts | 25° |
| 2026-04-29 04:52 | 28.43461 | 77.30267 | 2602 ft | 227 kts | 355° |
| 2026-04-29 04:52 | 28.44975 | 77.30124 | 2590 ft | 211 kts | 357° |
| 2026-04-29 04:53 | 28.46370 | 77.30115 | 2574 ft | 191 kts | 3° |
| 2026-04-29 04:53 | 28.47676 | 77.30240 | 2583 ft | 187 kts | 7° |
| 2026-04-29 04:53 | 28.48964 | 77.30444 | 2686 ft | 188 kts | 6° |
| 2026-04-29 04:53 | 28.50230 | 77.30169 | 2610 ft | 189 kts | 329° |
| 2026-04-29 04:54 | 28.51012 | 77.29149 | 2595 ft | 192 kts | 294° |
| 2026-04-29 04:54 | 28.51188 | 77.27608 | 2609 ft | 194 kts | 270° |
| 2026-04-29 04:54 | 28.51153 | 77.26084 | 2599 ft | 194 kts | 272° |
| 2026-04-29 04:54 | 28.51264 | 77.24558 | 2595 ft | 193 kts | 279° |
| 2026-04-29 04:55 | 28.51514 | 77.23055 | 2594 ft | 193 kts | 284° |
| 2026-04-29 04:55 | 28.51823 | 77.21610 | 2584 ft | 185 kts | 285° |
| 2026-04-29 04:55 | 28.52138 | 77.20200 | 2548 ft | 183 kts | 285° |
| 2026-04-29 04:55 | 28.52442 | 77.18812 | 2297 ft | 173 kts | 285° |
| 2026-04-29 04:56 | 28.52720 | 77.17513 | 2069 ft | 170 kts | 285° |
| 2026-04-29 04:56 | 28.52989 | 77.16253 | 1828 ft | 156 kts | 285° |
| 2026-04-29 04:56 | 28.53237 | 77.15089 | 1621 ft | 150 kts | 285° |
| 2026-04-29 04:56 | 28.53488 | 77.13923 | 1426 ft | 150 kts | 285° |
| 2026-04-29 04:57 | 28.53734 | 77.12775 | 1233 ft | 150 kts | 285° |
| 2026-04-29 04:57 | 28.53975 | 77.11633 | 1029 ft | 149 kts | 285° |
| 2026-04-29 04:57 | 28.54225 | 77.10485 | 816 ft | 149 kts | 285° |
| 2026-04-29 04:57 | 28.54454 | 77.09432 | 782 ft | 108 kts | 283° |
| 2026-04-29 04:58 | 28.54567 | 77.08912 | 782 ft | 45 kts | 286° |
| 2026-04-29 04:58 | 28.54664 | 77.08723 | 782 ft | 18 kts | 9° |
| 2026-04-29 04:58 | 28.54722 | 77.08738 | 782 ft | 0 kts | 14° |
| 2026-04-29 04:59 | 28.54726 | 77.08740 | 782 ft | 1 kts | 14° |
| 2026-04-29 04:59 | 28.54746 | 77.08745 | 782 ft | 5 kts | 14° |
| 2026-04-29 04:59 | 28.54801 | 77.08760 | 782 ft | 10 kts | 13° |
| 2026-04-29 05:00 | 28.54888 | 77.08786 | 782 ft | 14 kts | 15° |
| 2026-04-29 05:00 | 28.54962 | 77.08791 | 782 ft | 9 kts | 334° |
| 2026-04-29 05:00 | 28.55021 | 77.08762 | 782 ft | 6 kts | 12° |
| 2026-04-29 05:00 | 28.55043 | 77.08796 | 782 ft | 5 kts | 59° |
| 2026-04-29 05:01 | 28.55049 | 77.08807 | 782 ft | 1 kts | 59° |
| 2026-04-29 05:01 | 28.55054 | 77.08817 | 782 ft | 1 kts | 59° |
| 2026-04-29 05:01 | 28.55055 | 77.08818 | 782 ft | 0 kts | 59° |